Terminal Aerodrome Forecast
Issued by NWS

Home | Current Version | Previous Version | Text Only | Print | Product List | Glossary On
Versions: 1 2 3 4 5 6 7 8 9 10 11 12 13 14 15 16 17 18 19 20
735
FTUS41 KBTV 292329
TAFMPV
TAF
KMPV 292329Z 3000/3024 34010G18KT P6SM SCT035 BKN050
     FM300200 32007KT P6SM SCT020 BKN060
     FM300800 33004KT P6SM FEW025 BKN100
     FM301500 35008KT P6SM SCT045=

USA.gov is the U.S. government's official web portal to all federal, state and local government web resources and services.